Time;durP1;ratioP1;P1;durP2;ratioP2;P2;SDS_P1;SDS_P2;PMS_P1;PMS_P2;Temp;Humidity;BMP_temperature;BMP_pressure;BME280_temperature;BME280_humidity;BME280_pressure;Samples;Min_cycle;Max_cycle;Signal;HPM_P1;HPM_P2
2021/11/24 00:02:03;;;;;;;9.98;6.90;;;2.20;74.30;;;0.97;61.38;95786.28;4944242;28;20199;-82
2021/11/24 00:04:31;;;;;;;9.93;6.32;;;2.20;74.30;;;0.89;61.18;95787.66;4928838;29;20228;-81
2021/11/24 00:06:58;;;;;;;9.60;6.15;;;2.20;74.30;;;0.85;61.09;95775.06;4957370;28;20629;-82
2021/11/24 00:09:26;;;;;;;9.80;6.40;;;2.10;74.20;;;0.83;61.02;95782.91;4958947;28;20305;-81
2021/11/24 00:11:53;;;;;;;9.65;6.30;;;2.10;74.10;;;0.72;61.40;95782.84;4943966;28;20213;-82
2021/11/24 00:14:20;;;;;;;8.05;5.93;;;2.30;74.30;;;0.72;61.23;95786.25;4943882;28;20215;-81
2021/11/24 00:16:47;;;;;;;9.68;6.32;;;2.00;74.10;;;0.66;61.59;95788.44;4957856;28;20207;-81
2021/11/24 00:19:14;;;;;;;8.73;6.38;;;2.00;74.10;;;0.61;61.23;95779.28;4943786;28;20223;-81
2021/11/24 00:21:41;;;;;;;9.85;6.18;;;2.00;74.10;;;0.55;61.38;95778.88;4944000;28;20658;-81
2021/11/24 00:24:09;;;;;;;10.10;6.30;;;1.90;74.00;;;0.43;61.18;95771.06;4944080;28;20266;-81
2021/11/24 00:26:37;;;;;;;9.75;5.88;;;1.90;74.90;;;0.42;61.11;95774.59;4960102;28;20203;-81
2021/11/24 00:29:05;;;;;;;10.50;6.60;;;1.80;74.00;;;0.38;60.92;95775.75;4941438;29;20265;-81
2021/11/24 00:31:32;;;;;;;9.13;6.60;;;1.80;74.10;;;0.35;61.55;95772.53;4927166;28;20645;-81
2021/11/24 00:34:02;;;;;;;9.63;6.18;;;1.70;74.00;;;0.30;61.35;95781.41;4942399;28;20277;-81
2021/11/24 00:36:29;;;;;;;11.38;5.43;;;1.70;74.00;;;0.27;61.27;95775.66;4940982;28;20215;-81
2021/11/24 00:38:56;;;;;;;8.48;5.65;;;1.60;74.10;;;0.24;61.24;95789.59;4943686;28;20225;-81
2021/11/24 00:41:24;;;;;;;6.93;5.13;;;1.60;74.10;;;0.22;61.28;95782.88;4943406;28;20202;-82
2021/11/24 00:43:51;;;;;;;9.20;5.82;;;1.50;74.10;;;0.17;61.32;95770.28;4943167;28;20293;-81
2021/11/24 00:46:18;;;;;;;8.80;6.28;;;1.50;74.20;;;0.12;61.43;95780.97;4950803;28;20194;-81
2021/11/24 00:48:45;;;;;;;10.77;6.00;;;1.50;74.20;;;0.09;61.49;95770.84;4978473;28;20309;-82
2021/11/24 00:51:13;;;;;;;10.00;6.13;;;1.50;74.20;;;0.06;61.41;95765.91;4961889;28;20345;-81
2021/11/24 00:53:40;;;;;;;9.25;5.80;;;1.40;74.20;;;0.03;61.34;95766.09;4942094;28;20669;-82
2021/11/24 00:56:07;;;;;;;10.68;6.15;;;1.40;74.10;;;-0.03;61.67;95763.94;4943193;28;20635;-82
2021/11/24 00:58:35;;;;;;;8.68;5.57;;;1.40;74.20;;;-0.02;61.44;95757.88;4942901;28;20334;-81
2021/11/24 01:01:02;;;;;;;7.88;5.22;;;1.30;74.20;;;-0.05;61.66;95761.47;4943042;28;20261;-82
2021/11/24 01:03:30;;;;;;;7.10;4.95;;;1.30;74.30;;;-0.10;61.70;95749.81;4942958;28;20658;-82
2021/11/24 01:05:57;;;;;;;6.75;4.55;;;1.30;74.40;;;-0.08;61.68;95750.56;4942368;28;20206;-82
2021/11/24 01:08:24;;;;;;;7.47;4.95;;;1.20;74.40;;;-0.07;61.68;95760.75;4942690;28;20318;-81
2021/11/24 01:10:52;;;;;;;7.05;4.95;;;1.20;74.40;;;-0.05;61.84;95761.47;4927069;28;20649;-81
2021/11/24 01:13:19;;;;;;;6.85;4.75;;;1.20;74.40;;;-0.08;61.72;95763.44;4926854;28;20653;-82
2021/11/24 01:15:47;;;;;;;5.78;4.45;;;1.20;74.50;;;-0.11;61.45;95751.59;4953637;29;20210;-82
2021/11/24 01:18:15;;;;;;;5.53;4.43;;;1.20;74.40;;;-0.09;61.70;95757.44;4955548;28;20201;-82
2021/11/24 01:20:46;;;;;;;5.82;4.53;;;1.20;74.50;;;-0.14;61.63;95749.22;4939464;29;20215;-82
2021/11/24 01:23:14;;;;;;;6.82;4.57;;;1.10;74.50;;;-0.11;61.74;95755.91;4933114;28;20207;-82
2021/11/24 01:25:42;;;;;;;7.68;4.30;;;1.20;74.50;;;-0.15;61.24;95751.91;4937911;28;20199;-81
2021/11/24 01:28:09;;;;;;;6.88;4.68;;;1.10;74.40;;;-0.19;61.38;95751.28;4942823;28;20234;-82
2021/11/24 01:30:36;;;;;;;7.35;4.43;;;1.10;74.40;;;-0.22;61.53;95751.47;4942285;28;20651;-81
2021/11/24 01:33:04;;;;;;;6.13;4.40;;;1.10;74.40;;;-0.28;61.64;95744.16;4942990;28;20201;-82
2021/11/24 01:35:31;;;;;;;6.18;4.32;;;1.10;74.40;;;-0.30;61.85;95739.13;4941681;28;20223;-82
2021/11/24 01:37:58;;;;;;;6.45;4.45;;;1.00;74.40;;;-0.29;61.36;95743.34;4942392;28;20245;-82
2021/11/24 01:40:26;;;;;;;7.03;4.90;;;1.00;74.40;;;-0.32;61.64;95740.97;4926419;28;20218;-81
2021/11/24 01:42:53;;;;;;;6.93;4.63;;;1.00;74.40;;;-0.37;61.44;95737.88;4938966;29;20222;-82
2021/11/24 01:45:22;;;;;;;7.50;4.95;;;0.90;74.40;;;-0.37;61.80;95743.84;4954896;28;20223;-82
2021/11/24 01:47:50;;;;;;;7.18;4.72;;;0.90;74.50;;;-0.40;61.88;95736.34;4939634;29;20214;-83
2021/11/24 01:50:20;;;;;;;6.60;4.60;;;0.90;74.60;;;-0.38;61.91;95737.06;4938965;29;20330;-81
2021/11/24 01:52:48;;;;;;;5.80;4.30;;;0.90;74.70;;;-0.40;61.79;95731.19;4954701;28;20729;-82
2021/11/24 01:55:17;;;;;;;6.32;4.55;;;0.90;74.80;;;-0.37;61.75;95735.31;4938053;28;20719;-82
2021/11/24 01:57:50;;;;;;;6.32;4.97;;;0.90;74.80;;;-0.39;62.13;95726.84;4954490;28;20242;-82
2021/11/24 02:00:26;;;;;;;6.10;4.80;;;0.90;74.90;;;-0.43;62.04;95702.22;4970545;28;20599;-82
2021/11/24 02:02:54;;;;;;;5.57;4.40;;;0.90;75.00;;;-0.38;62.41;95711.31;4957609;28;20206;-82
2021/11/24 02:05:22;;;;;;;6.15;4.57;;;0.90;75.00;;;-0.31;62.30;95710.88;4942107;28;20214;-82
2021/11/24 02:07:50;;;;;;;6.07;4.15;;;0.90;75.10;;;-0.33;61.89;95704.06;4941887;28;20254;-82
2021/11/24 02:10:21;;;;;;;5.90;4.45;;;0.90;75.10;;;-0.27;62.31;95709.72;4957104;28;20689;-82
2021/11/24 02:12:50;;;;;;;7.47;4.32;;;0.90;75.20;;;-0.27;61.88;95704.56;4926312;28;20205;-82
2021/11/24 02:15:19;;;;;;;6.32;4.47;;;0.90;75.10;;;-0.29;61.99;95701.25;4957916;28;20309;-82
2021/11/24 02:17:47;;;;;;;6.00;4.53;;;0.90;75.00;;;-0.34;62.28;95705.00;4942178;28;20195;-82
2021/11/24 02:20:36;;;;;;;5.80;4.13;;;0.90;75.00;;;-0.36;61.99;95701.69;4938587;29;20677;-82
2021/11/24 02:23:06;;;;;;;7.40;4.55;;;0.90;75.00;;;-0.41;61.85;95695.22;4967564;28;20195;-82
2021/11/24 02:25:35;;;;;;;5.47;4.45;;;0.90;74.90;;;-0.46;61.92;95692.94;4925650;28;20219;-82
2021/11/24 02:28:03;;;;;;;6.10;4.55;;;0.80;74.80;;;-0.46;61.81;95697.25;4941666;28;20720;-82
2021/11/24 02:30:30;;;;;;;6.95;4.63;;;0.80;74.80;;;-0.51;61.87;95697.59;4940958;28;20234;-82
2021/11/24 02:32:58;;;;;;;7.15;4.85;;;0.80;74.80;;;-0.57;61.70;95687.72;4941336;28;20581;-82
2021/11/24 02:35:25;;;;;;;6.35;4.47;;;0.80;74.80;;;-0.56;61.76;95691.91;4941129;28;20218;-82
2021/11/24 02:37:53;;;;;;;4.75;4.25;;;0.80;74.90;;;-0.57;62.36;95698.00;4941204;28;20203;-82
2021/11/24 02:40:30;;;;;;;7.28;4.60;;;0.70;74.80;;;-0.59;62.17;95692.13;4956555;28;20214;-81
2021/11/24 02:42:58;;;;;;;5.32;4.50;;;0.70;75.10;;;-0.61;62.61;95683.69;4922529;29;20195;-81
2021/11/24 02:45:26;;;;;;;6.53;4.55;;;0.70;75.00;;;-0.57;62.34;95683.38;4937813;29;20338;-82
2021/11/24 02:47:53;;;;;;;6.35;4.65;;;0.70;75.10;;;-0.54;62.31;95695.22;4922199;29;20204;-82
2021/11/24 02:50:21;;;;;;;6.72;4.82;;;0.70;75.10;;;-0.55;62.25;95688.41;4921088;29;20659;-81
2021/11/24 02:52:50;;;;;;;8.05;4.60;;;0.70;75.10;;;-0.56;62.02;95689.34;4938000;29;20203;-82
2021/11/24 02:55:18;;;;;;;6.90;4.97;;;0.70;75.10;;;-0.60;62.05;95673.25;4937844;29;20239;-82
2021/11/24 02:57:49;;;;;;;6.00;4.43;;;0.70;75.10;;;-0.55;62.32;95678.09;4937256;29;20235;-82
2021/11/24 03:00:24;;;;;;;8.43;5.00;;;0.70;75.30;;;-0.54;62.44;95679.75;4924752;28;20596;-82
2021/11/24 03:02:53;;;;;;;6.03;4.90;;;0.70;75.20;;;-0.53;62.33;95684.00;4925376;28;20198;-82
2021/11/24 03:05:26;;;;;;;7.47;5.00;;;0.70;75.30;;;-0.53;62.48;95679.66;4956977;28;20677;-82
2021/11/24 03:07:59;;;;;;;8.07;5.10;;;0.70;75.50;;;-0.52;62.41;95678.72;4940965;28;20305;-81
2021/11/24 03:10:27;;;;;;;7.15;5.00;;;0.70;75.30;;;-0.54;62.48;95672.88;4956755;28;20235;-81
2021/11/24 03:12:56;;;;;;;8.63;5.53;;;0.70;75.30;;;-0.56;62.59;95661.84;4956205;28;20207;-81
2021/11/24 03:15:24;;;;;;;7.45;5.18;;;0.70;75.20;;;-0.56;62.62;95666.97;4940932;28;20271;-81
2021/11/24 03:17:51;;;;;;;8.25;5.57;;;0.70;75.30;;;-0.53;62.59;95658.22;4940653;28;20218;-81
2021/11/24 03:20:20;;;;;;;8.68;5.60;;;0.70;75.30;;;-0.51;62.50;95662.34;4956365;28;20274;-81
2021/11/24 03:22:47;;;;;;;7.97;5.00;;;0.70;75.40;;;-0.50;62.55;95670.88;4956593;28;20225;-81
2021/11/24 03:25:14;;;;;;;6.40;4.78;;;0.70;75.40;;;-0.54;62.47;95667.72;4940641;28;20290;-81
2021/11/24 03:27:43;;;;;;;8.65;5.32;;;0.70;75.30;;;-0.54;62.17;95659.97;4940035;28;20214;-80
2021/11/24 03:30:16;;;;;;;8.10;5.63;;;0.80;75.30;;;-0.61;62.28;95650.19;4925119;28;20317;-81
2021/11/24 03:32:44;;;;;;;6.55;4.68;;;0.70;75.20;;;-0.59;62.14;95662.03;4940613;28;20247;-80
2021/11/24 03:35:14;;;;;;;6.70;4.80;;;0.70;75.30;;;-0.62;62.28;95662.25;4940682;28;20210;-81
2021/11/24 03:37:42;;;;;;;8.45;5.60;;;0.70;75.20;;;-0.65;62.02;95660.72;4940445;28;20195;-81
2021/11/24 03:40:12;;;;;;;7.18;5.05;;;0.60;75.00;;;-0.73;62.32;95651.84;4940660;28;20246;-81
2021/11/24 03:42:43;;;;;;;7.93;5.03;;;0.60;75.10;;;-0.74;62.45;95663.91;4940426;28;20206;-81
2021/11/24 03:45:12;;;;;;;7.07;4.70;;;0.60;75.10;;;-0.73;62.82;95659.56;4939886;28;20700;-81
2021/11/24 03:47:39;;;;;;;8.23;5.10;;;0.60;75.10;;;-0.81;62.88;95639.47;4940058;28;20222;-81
2021/11/24 03:50:08;;;;;;;8.68;5.68;;;0.50;75.20;;;-0.74;62.79;95645.88;4940157;28;20688;-81
2021/11/24 03:52:35;;;;;;;7.07;5.00;;;0.50;75.30;;;-0.69;62.80;95650.72;4956487;28;20206;-80
2021/11/24 03:55:05;;;;;;;6.45;4.80;;;0.50;75.40;;;-0.66;63.10;95651.34;4940034;28;20700;-81
2021/11/24 03:57:33;;;;;;;6.78;4.80;;;0.60;75.60;;;-0.68;62.49;95647.22;4925024;28;20289;-82
2021/11/24 04:00:01;;;;;;;6.57;4.72;;;0.60;75.50;;;-0.65;62.74;95644.41;4939747;28;20234;-81
2021/11/24 04:02:30;;;;;;;6.88;4.47;;;0.50;75.50;;;-0.61;62.69;95645.88;4956987;28;20606;-82
2021/11/24 04:04:58;;;;;;;6.38;4.53;;;0.60;75.50;;;-0.61;62.17;95652.75;4940594;28;20637;-80
2021/11/24 04:07:25;;;;;;;10.60;4.90;;;0.60;75.60;;;-0.62;62.70;95649.38;4938629;28;20199;-82
2021/11/24 04:09:52;;;;;;;6.80;4.50;;;0.60;75.60;;;-0.59;62.77;95644.00;4944206;28;20215;-82
2021/11/24 04:12:19;;;;;;;6.43;4.90;;;0.60;75.70;;;-0.57;62.50;95651.63;4932364;28;20386;-81
2021/11/24 04:14:46;;;;;;;5.35;3.97;;;0.60;75.60;;;-0.59;62.58;95633.69;4935315;28;20219;-82
2021/11/24 04:17:15;;;;;;;6.75;4.50;;;0.60;75.50;;;-0.60;62.36;95642.34;4948645;28;20202;-81
2021/11/24 04:19:42;;;;;;;6.53;4.63;;;0.60;75.50;;;-0.60;62.50;95639.75;4924885;28;20708;-81
2021/11/24 04:22:09;;;;;;;5.35;4.18;;;0.60;75.50;;;-0.60;62.82;95655.22;4934755;28;20215;-82
2021/11/24 04:24:37;;;;;;;7.25;4.70;;;0.60;75.50;;;-0.63;62.56;95649.44;4931219;28;20227;-81
2021/11/24 04:27:04;;;;;;;6.75;4.72;;;0.60;75.50;;;-0.60;62.45;95642.34;4932768;28;20303;-81
2021/11/24 04:29:32;;;;;;;7.82;5.53;;;0.60;75.60;;;-0.57;62.95;95644.72;4941371;28;20223;-82
2021/11/24 04:31:59;;;;;;;7.60;5.28;;;0.60;75.60;;;-0.52;62.87;95641.84;4932480;28;20223;-81
2021/11/24 04:34:27;;;;;;;9.98;6.00;;;0.60;75.70;;;-0.49;62.85;95642.44;4933845;28;20222;-82
2021/11/24 04:36:54;;;;;;;7.10;5.10;;;0.60;75.80;;;-0.48;62.98;95630.38;4941850;28;20234;-82
2021/11/24 04:39:22;;;;;;;9.35;5.55;;;0.60;75.80;;;-0.39;63.02;95639.22;4950161;28;20223;-81
2021/11/24 04:41:49;;;;;;;9.23;6.22;;;0.70;76.00;;;-0.30;63.01;95638.59;4933271;28;20192;-83
2021/11/24 04:44:17;;;;;;;8.13;5.57;;;0.70;76.00;;;-0.27;62.88;95632.41;4926281;29;20306;-82
2021/11/24 04:46:44;;;;;;;7.45;5.60;;;0.70;76.20;;;-0.15;62.87;95641.84;4925018;28;20269;-82
2021/11/24 04:49:12;;;;;;;8.38;5.55;;;0.80;76.20;;;-0.10;62.80;95637.19;4941005;28;20713;-83
2021/11/24 04:51:38;;;;;;;9.93;5.97;;;0.80;76.30;;;-0.04;63.27;95629.03;4955739;28;20226;-83
2021/11/24 04:54:06;;;;;;;8.85;6.00;;;0.90;76.40;;;0.06;63.11;95638.69;4939901;28;20223;-82
2021/11/24 04:56:33;;;;;;;9.40;6.55;;;1.00;77.30;;;0.21;63.20;95644.50;4954775;28;20199;-82
2021/11/24 04:59:02;;;;;;;8.73;6.18;;;1.00;76.60;;;0.29;63.14;95645.63;4923773;28;20270;-82
2021/11/24 05:01:29;;;;;;;9.25;6.45;;;1.10;76.70;;;0.38;63.53;95638.13;4939698;28;20438;-84
2021/11/24 05:03:57;;;;;;;9.68;6.68;;;1.20;76.80;;;0.44;63.10;95623.03;4939375;28;20227;-82
2021/11/24 05:06:25;;;;;;;10.27;6.40;;;1.30;76.90;;;0.63;63.31;95638.00;4939288;28;20773;-83
2021/11/24 05:08:52;;;;;;;9.57;6.63;;;1.40;77.00;;;0.72;63.14;95631.34;4939635;28;20250;-83
2021/11/24 05:11:20;;;;;;;10.77;6.75;;;1.50;77.00;;;0.83;63.03;95624.56;4941192;28;20630;-82
2021/11/24 05:13:55;;;;;;;43.38;21.00;;;1.60;77.00;;;0.89;62.95;95632.69;4941611;28;20226;-83
2021/11/24 05:16:24;;;;;;;23.58;13.20;;;1.70;77.00;;;0.97;62.90;95639.03;4942665;28;20293;-82
2021/11/24 05:18:52;;;;;;;16.67;9.95;;;1.70;76.80;;;1.00;62.92;95631.03;4942971;28;20227;-83
2021/11/24 05:21:33;;;;;;;12.43;8.43;;;1.80;76.70;;;1.02;62.91;95639.50;4942534;28;20206;-83
2021/11/24 05:24:01;;;;;;;12.82;7.65;;;1.80;76.60;;;0.99;62.77;95644.88;4958655;28;20763;-81
2021/11/24 05:26:30;;;;;;;11.65;7.88;;;1.90;76.50;;;0.96;62.41;95635.63;4941563;28;20213;-81
2021/11/24 05:28:58;;;;;;;12.35;9.00;;;1.90;76.30;;;0.97;62.11;95639.84;4942582;28;20222;-82
2021/11/24 05:31:27;;;;;;;13.10;8.63;;;1.90;76.20;;;0.94;62.45;95634.91;4942226;28;20337;-82
2021/11/24 05:33:54;;;;;;;10.68;7.97;;;1.90;76.10;;;0.91;62.65;95633.38;4941971;28;20633;-82
2021/11/24 05:36:21;;;;;;;11.18;7.10;;;2.00;76.20;;;0.98;63.05;95645.81;4941957;28;20572;-83
2021/11/24 05:38:49;;;;;;;10.45;6.68;;;2.00;76.30;;;0.96;62.61;95635.63;4938995;29;20216;-83
2021/11/24 05:41:16;;;;;;;10.10;7.22;;;2.00;76.40;;;1.01;62.71;95638.66;4923161;29;20227;-82
2021/11/24 05:43:45;;;;;;;14.00;9.32;;;2.00;76.40;;;1.05;62.81;95637.53;4923101;29;20219;-82
2021/11/24 05:48:45;;;;;;;11.73;7.18;;;2.00;76.40;;;1.11;62.72;95642.22;4942283;28;20258;-82
2021/11/24 05:51:13;;;;;;;7.97;6.63;;;2.10;76.60;;;1.16;62.97;95638.47;4942153;28;20257;-83
2021/11/24 05:53:41;;;;;;;9.35;6.32;;;2.10;76.50;;;1.22;62.65;95636.25;4942205;28;20297;-83
2021/11/24 05:56:08;;;;;;;10.90;7.53;;;2.10;76.60;;;1.27;62.83;95633.31;4941478;28;20225;-83
2021/11/24 05:58:35;;;;;;;8.52;6.53;;;2.20;76.70;;;1.31;62.94;95639.91;4941937;28;20250;-82
2021/11/24 06:01:03;;;;;;;9.55;6.95;;;2.20;76.70;;;1.31;62.93;95629.56;4942033;28;20203;-83
2021/11/24 06:03:30;;;;;;;11.95;7.45;;;2.20;76.70;;;1.37;62.72;95641.19;4942179;28;20202;-82
2021/11/24 06:05:57;;;;;;;10.52;7.05;;;2.20;76.70;;;1.44;62.76;95638.03;4941462;28;20261;-82
2021/11/24 06:08:24;;;;;;;15.63;8.70;;;2.30;76.70;;;1.49;62.85;95635.09;4942117;28;20194;-82
2021/11/24 06:10:52;;;;;;;10.63;7.78;;;2.40;76.80;;;1.52;62.74;95629.66;4941654;28;20257;-82
2021/11/24 06:13:19;;;;;;;9.48;7.22;;;2.40;76.80;;;1.60;62.86;95632.50;4941701;28;20210;-82
2021/11/24 06:15:46;;;;;;;10.00;7.00;;;2.40;76.70;;;1.67;62.74;95637.19;4940906;28;20211;-83
2021/11/24 06:18:13;;;;;;;9.40;6.88;;;2.50;76.80;;;1.72;62.83;95637.66;4941739;28;20203;-82
2021/11/24 06:20:41;;;;;;;9.20;6.50;;;2.50;76.80;;;1.77;62.91;95640.72;4957806;28;20642;-83
2021/11/24 06:23:10;;;;;;;11.18;7.72;;;2.60;76.80;;;1.82;62.79;95638.59;4941581;28;20199;-83
2021/11/24 06:25:38;;;;;;;13.20;8.95;;;2.70;76.90;;;1.86;62.85;95642.56;4941529;28;20234;-83
2021/11/24 06:28:07;;;;;;;10.57;7.65;;;2.60;76.70;;;1.87;62.93;95639.06;4941153;28;20220;-81
2021/11/24 06:30:34;;;;;;;11.15;7.78;;;2.70;76.80;;;1.96;62.77;95634.91;4941180;28;20736;-83
2021/11/24 06:33:02;;;;;;;13.20;8.32;;;2.70;76.80;;;1.99;62.63;95633.84;4941034;28;20214;-81
2021/11/24 06:35:29;;;;;;;11.18;7.57;;;2.80;76.80;;;1.96;62.97;95626.34;4957002;28;20246;-82
2021/11/24 06:37:57;;;;;;;10.95;7.30;;;2.80;76.70;;;2.03;62.55;95623.13;4941229;28;20302;-83
2021/11/24 06:40:25;;;;;;;9.60;6.88;;;2.80;76.70;;;2.07;63.25;95628.91;4941305;28;20227;-83
2021/11/24 06:42:52;;;;;;;10.82;7.20;;;2.90;76.80;;;2.13;62.73;95631.00;4941189;28;20684;-82
2021/11/24 06:45:20;;;;;;;9.63;6.88;;;2.90;76.80;;;2.17;63.15;95629.00;4956954;28;20214;-83
2021/11/24 06:47:47;;;;;;;8.57;6.15;;;2.90;76.70;;;2.21;62.96;95625.19;4937591;29;20626;-82
2021/11/24 06:50:15;;;;;;;9.13;6.40;;;3.00;76.80;;;2.27;62.77;95634.25;4953582;28;20851;-81
2021/11/24 06:52:43;;;;;;;12.27;7.72;;;3.00;76.80;;;2.30;62.95;95616.72;4965871;28;20226;-82
2021/11/24 06:55:11;;;;;;;11.63;7.55;;;3.10;76.90;;;2.30;62.68;95627.06;4941148;28;20277;-83
2021/11/24 06:57:40;;;;;;;9.95;6.13;;;3.10;76.90;;;2.38;62.79;95631.63;4940390;28;20207;-83
2021/11/24 07:00:10;;;;;;;9.70;7.10;;;3.20;76.90;;;2.40;62.87;95627.16;4956593;28;20708;-82
2021/11/24 07:02:37;;;;;;;9.70;6.68;;;3.20;77.00;;;2.41;63.02;95626.19;4956842;28;20225;-83
2021/11/24 07:05:06;;;;;;;10.90;7.88;;;3.20;77.00;;;2.51;62.79;95636.66;4924911;28;20258;-83
2021/11/24 07:07:33;;;;;;;10.98;7.78;;;3.30;76.90;;;2.55;62.62;95628.50;4941093;28;20198;-82
2021/11/24 07:10:01;;;;;;;9.90;6.88;;;3.30;77.00;;;2.62;62.72;95635.78;4940999;28;20310;-83
2021/11/24 07:12:28;;;;;;;10.27;7.47;;;3.30;77.00;;;2.60;62.93;95622.97;4941079;28;20226;-83
2021/11/24 07:14:56;;;;;;;18.92;13.52;;;3.40;77.10;;;2.68;62.96;95630.09;4941061;28;20755;-81
2021/11/24 07:17:24;;;;;;;12.32;8.52;;;3.50;77.10;;;2.77;62.72;95625.94;4940423;28;20717;-80
2021/11/24 07:19:52;;;;;;;10.52;7.70;;;3.50;77.10;;;2.77;63.06;95619.00;4940237;28;20226;-80
2021/11/24 07:22:20;;;;;;;8.05;6.05;;;3.60;77.20;;;2.83;63.21;95628.84;4940536;28;20195;-83
2021/11/24 07:24:47;;;;;;;8.43;6.40;;;3.70;77.30;;;2.96;63.07;95636.41;4940629;28;20241;-83
2021/11/24 07:27:15;;;;;;;10.93;7.50;;;3.70;77.30;;;3.03;63.10;95637.56;4940300;28;20289;-84
2021/11/24 07:29:42;;;;;;;15.02;10.55;;;3.70;77.30;;;3.08;62.99;95638.97;4940542;28;20250;-84
2021/11/24 07:32:09;;;;;;;12.45;9.43;;;3.80;77.40;;;3.17;63.07;95644.19;4940660;28;20226;-83
2021/11/24 07:34:38;;;;;;;11.63;7.85;;;3.80;77.30;;;3.24;63.18;95638.50;4956371;28;20708;-83
2021/11/24 07:37:06;;;;;;;9.55;7.47;;;3.90;77.40;;;3.30;62.75;95635.41;4940865;28;20218;-82
2021/11/24 07:39:33;;;;;;;10.20;7.43;;;4.00;77.40;;;3.39;62.67;95636.38;4940341;28;20250;-83
2021/11/24 07:42:01;;;;;;;7.80;6.65;;;4.00;77.30;;;3.45;62.92;95644.47;4940897;28;20194;-83
2021/11/24 07:44:28;;;;;;;7.28;6.50;;;4.10;77.30;;;3.49;62.90;95632.06;4943960;28;20233;-80
2021/11/24 07:46:55;;;;;;;8.25;7.03;;;4.20;77.40;;;3.57;62.93;95631.41;4944721;28;20285;-83
2021/11/24 07:49:23;;;;;;;6.68;5.78;;;4.20;77.30;;;3.60;63.03;95629.38;4944443;28;20578;-83
2021/11/24 07:51:50;;;;;;;7.97;5.95;;;4.30;77.30;;;3.68;62.82;95632.13;4944488;28;20222;-83
2021/11/24 07:54:18;;;;;;;12.43;8.52;;;4.30;77.30;;;3.71;62.77;95623.28;4944564;28;20223;-84
2021/11/24 07:56:45;;;;;;;16.00;9.18;;;4.40;77.30;;;3.75;62.77;95619.47;4944696;28;20619;-83
2021/11/24 07:59:14;;;;;;;15.02;9.38;;;4.50;77.40;;;3.83;63.09;95630.00;4928849;28;20709;-84
2021/11/24 08:01:41;;;;;;;13.48;9.00;;;4.50;77.30;;;3.90;62.98;95624.28;4944514;28;20211;-83
2021/11/24 08:04:09;;;;;;;13.55;8.73;;;4.60;77.40;;;3.93;62.83;95617.06;4944282;28;20231;-83
2021/11/24 08:06:36;;;;;;;15.48;8.65;;;4.60;77.30;;;3.95;62.96;95614.31;4924621;28;20241;-82
2021/11/24 08:09:04;;;;;;;13.45;8.60;;;4.70;77.30;;;4.02;62.85;95620.63;4975962;28;20219;-84
2021/11/24 08:11:31;;;;;;;12.77;9.00;;;4.70;77.30;;;4.08;62.90;95617.50;4939881;28;20624;-83
2021/11/24 08:13:59;;;;;;;16.95;9.93;;;4.80;77.30;;;4.12;62.82;95618.84;4959396;28;20218;-81
2021/11/24 08:16:27;;;;;;;14.48;9.23;;;4.80;77.30;;;4.19;63.01;95619.16;4943924;28;20306;-82
2021/11/24 08:18:55;;;;;;;11.70;9.02;;;4.80;77.30;;;4.24;62.82;95622.16;4943538;28;20231;-83
2021/11/24 08:21:22;;;;;;;12.20;8.07;;;4.90;78.10;;;4.24;62.98;95611.78;4976809;28;20198;-81
2021/11/24 08:23:50;;;;;;;13.48;8.50;;;5.00;77.30;;;4.31;62.72;95618.06;4943897;28;20219;-82
2021/11/24 08:26:18;;;;;;;10.30;7.35;;;5.00;77.30;;;4.40;62.87;95623.41;4959824;28;20656;-81
2021/11/24 08:28:45;;;;;;;10.73;7.53;;;5.10;77.30;;;4.40;62.69;95600.84;4975469;28;20545;-82
2021/11/24 08:31:12;;;;;;;8.48;6.25;;;5.10;77.30;;;4.50;62.68;95613.84;4943741;28;20247;-81
2021/11/24 08:33:39;;;;;;;8.55;6.18;;;5.10;77.20;;;4.54;62.88;95604.84;4925196;29;20227;-81
2021/11/24 08:36:07;;;;;;;8.00;6.20;;;5.20;77.20;;;4.63;62.92;95609.19;4940556;29;20278;-80
2021/11/24 08:38:34;;;;;;;6.40;5.50;;;5.30;77.20;;;4.71;62.66;95611.13;4940315;28;20219;-82
2021/11/24 08:41:02;;;;;;;7.03;5.78;;;5.30;77.30;;;4.75;62.81;95602.06;4940194;29;20299;-82
2021/11/24 08:43:29;;;;;;;8.77;6.43;;;5.40;77.30;;;4.85;62.63;95603.84;4940414;28;20251;-81
2021/11/24 08:45:58;;;;;;;10.00;6.93;;;5.40;77.30;;;4.90;62.73;95599.84;4949358;28;20204;-81
2021/11/24 08:48:25;;;;;;;9.32;6.90;;;5.50;77.30;;;4.99;62.73;95608.59;4962916;28;20280;-81
2021/11/24 08:50:53;;;;;;;10.18;7.28;;;5.50;77.30;;;5.06;62.52;95599.28;4962661;28;20221;-81
2021/11/24 08:53:22;;;;;;;8.77;6.75;;;5.60;77.20;;;5.14;62.12;95593.41;4962121;28;20635;-81
2021/11/24 08:55:50;;;;;;;10.23;7.43;;;5.70;77.20;;;5.21;62.72;95591.03;4961931;28;20672;-83
2021/11/24 08:58:17;;;;;;;9.43;7.80;;;5.70;77.20;;;5.28;62.36;95590.34;4962449;28;20206;-81
2021/11/24 09:00:45;;;;;;;14.70;8.90;;;5.80;77.20;;;5.35;62.44;95587.16;4978610;28;20233;-81
2021/11/24 09:03:13;;;;;;;13.05;8.40;;;5.90;77.20;;;5.43;62.54;95588.09;4962553;28;20289;-82
2021/11/24 09:05:41;;;;;;;13.60;9.13;;;5.90;77.10;;;5.52;62.54;95586.41;4978391;28;20225;-82
2021/11/24 09:08:08;;;;;;;12.05;8.63;;;6.00;77.20;;;5.61;62.58;95587.31;4961014;28;20210;-81
2021/11/24 09:10:38;;;;;;;10.93;8.27;;;6.10;77.20;;;5.66;62.18;95587.69;4937766;29;20784;-82
2021/11/24 09:13:05;;;;;;;11.63;8.15;;;6.20;77.00;;;5.75;62.28;95586.84;4938740;29;20228;-80
2021/11/24 09:15:33;;;;;;;9.15;6.90;;;6.20;77.00;;;5.80;61.95;95590.78;4939199;29;20247;-82
2021/11/24 09:18:13;;;;;;;8.98;6.75;;;6.30;76.90;;;5.86;61.92;95575.41;4937845;28;20621;-82
2021/11/24 09:20:41;;;;;;;10.77;6.10;;;6.40;76.70;;;5.94;62.09;95577.28;4942592;28;20226;-80
2021/11/24 09:23:08;;;;;;;8.10;6.35;;;6.40;76.60;;;6.01;61.68;95578.38;4942400;28;20226;-82
2021/11/24 09:25:48;;;;;;;6.93;5.78;;;6.50;76.70;;;6.09;61.76;95575.03;4942209;28;20222;-82
2021/11/24 09:28:22;;;;;;;8.48;5.55;;;6.60;77.50;;;6.12;61.75;95553.91;4944489;28;20193;-82
2021/11/24 09:30:50;;;;;;;7.28;5.90;;;6.60;76.50;;;6.24;61.75;95564.94;4953290;29;20725;-83
2021/11/24 09:33:18;;;;;;;7.60;6.00;;;6.70;76.50;;;6.32;61.50;95554.56;4967931;28;20223;-82
2021/11/24 09:35:45;;;;;;;7.03;5.65;;;6.70;76.60;;;6.40;61.58;95554.63;4922610;29;20254;-82
2021/11/24 09:38:13;;;;;;;6.35;5.07;;;6.90;76.70;;;6.44;61.61;95549.94;4941823;28;20281;-82
2021/11/24 09:40:40;;;;;;;6.43;5.47;;;6.90;76.70;;;6.55;61.68;95546.28;4942251;28;20226;-83
2021/11/24 09:43:13;;;;;;;8.43;5.72;;;7.00;76.70;;;6.59;61.59;95544.19;4938294;29;20210;-82
2021/11/24 09:45:43;;;;;;;8.00;6.05;;;7.00;76.50;;;6.72;61.66;95549.84;4959066;28;20199;-82
2021/11/24 09:48:15;;;;;;;8.38;6.30;;;7.10;76.60;;;6.79;61.53;95542.25;4957514;28;20253;-81
2021/11/24 09:50:46;;;;;;;7.53;6.10;;;7.20;76.30;;;6.86;61.06;95543.25;4956611;28;20203;-81
2021/11/24 09:53:16;;;;;;;7.70;6.35;;;7.30;76.50;;;6.90;61.12;95526.34;4925489;28;20784;-82
2021/11/24 09:55:45;;;;;;;8.65;7.40;;;7.30;76.30;;;6.99;60.96;95528.00;4958105;28;20190;-81
2021/11/24 09:58:15;;;;;;;9.10;6.80;;;7.40;76.30;;;7.02;61.07;95517.28;4924948;28;20257;-83
2021/11/24 10:00:44;;;;;;;10.00;7.38;;;7.60;76.40;;;7.13;60.88;95531.00;4941831;28;20442;-82
2021/11/24 10:03:13;;;;;;;10.80;7.50;;;7.60;76.40;;;7.17;60.62;95519.31;4941707;28;20203;-82
2021/11/24 10:05:40;;;;;;;10.40;7.75;;;7.60;76.30;;;7.22;60.96;95525.69;4941330;28;20207;-82
2021/11/24 10:08:08;;;;;;;9.45;7.43;;;7.60;76.20;;;7.31;61.04;95520.50;4939737;28;20195;-83
2021/11/24 10:10:35;;;;;;;10.35;7.75;;;7.70;76.20;;;7.37;60.48;95512.91;4938222;29;20261;-83
2021/11/24 10:13:03;;;;;;;10.18;7.75;;;7.80;76.10;;;7.43;60.44;95514.03;4954196;28;20238;-82
2021/11/24 10:15:49;;;;;;;11.10;8.68;;;7.80;76.00;;;7.45;60.26;95503.47;4924995;29;20215;-83
2021/11/24 10:18:35;;;;;;;11.65;8.68;;;7.90;75.40;;;7.50;60.01;95495.97;4952742;28;20202;-83
2021/11/24 10:21:15;;;;;;;10.43;8.20;;;7.90;75.70;;;7.53;60.10;95495.63;4955110;28;20253;-83
2021/11/24 10:23:46;;;;;;;11.95;9.00;;;8.00;75.30;;;7.54;60.45;95499.88;4953437;28;20223;-82
2021/11/24 10:26:28;;;;;;;11.85;8.48;;;8.10;75.60;;;7.55;59.90;95493.69;4955220;28;20538;-83
2021/11/24 10:29:15;;;;;;;9.35;7.07;;;8.00;75.30;;;7.53;59.70;95488.66;4941315;28;20755;-82
2021/11/24 10:31:52;;;;;;;9.57;7.78;;;8.10;75.40;;;7.56;59.65;95482.28;4937123;29;20203;-81
2021/11/24 10:34:30;;;;;;;10.25;7.72;;;8.10;74.90;;;7.56;59.51;95494.53;4948690;28;20229;-82
2021/11/24 10:37:05;;;;;;;9.07;7.63;;;8.10;75.00;;;7.55;59.59;95488.47;4940949;28;20417;-83